createdAt,value
2023-03-13T00:00:10.630Z,5.93
2023-03-13T00:02:37.909Z,5.53
2023-03-13T00:05:05.927Z,5.87
2023-03-13T00:07:33.420Z,5.97
2023-03-13T00:10:00.853Z,5.50
2023-03-13T00:12:28.562Z,5.90
2023-03-13T00:14:56.075Z,5.65
2023-03-13T00:17:23.542Z,5.53
2023-03-13T00:19:51.318Z,5.70
2023-03-13T00:22:18.770Z,4.85
2023-03-13T00:24:46.608Z,5.25
2023-03-13T00:27:14.312Z,5.57
2023-03-13T00:29:41.753Z,5.35
2023-03-13T00:32:09.242Z,5.82
2023-03-13T00:34:37.122Z,5.32
2023-03-13T00:37:06.520Z,5.60
2023-03-13T00:39:33.988Z,5.28
2023-03-13T00:42:04.025Z,5.77
2023-03-13T00:44:31.493Z,5.40
2023-03-13T00:46:58.924Z,5.30
2023-03-13T00:49:26.712Z,5.10
2023-03-13T00:51:56.209Z,5.32
2023-03-13T00:54:23.649Z,5.70
2023-03-13T00:56:51.345Z,5.45
2023-03-13T00:59:18.861Z,4.90
2023-03-13T01:01:46.313Z,5.50
2023-03-13T01:04:14.127Z,5.12
2023-03-13T01:06:43.124Z,5.55
2023-03-13T01:09:13.513Z,5.60
2023-03-13T01:11:42.990Z,5.32
2023-03-13T01:14:13.126Z,5.40
2023-03-13T01:19:13.656Z,5.03
2023-03-13T01:21:42.088Z,4.95
2023-03-13T01:24:09.799Z,4.93
2023-03-13T01:26:37.254Z,4.82
2023-03-13T01:29:04.727Z,5.05
2023-03-13T01:31:33.852Z,5.15
2023-03-13T01:34:03.528Z,5.07
2023-03-13T01:39:00.297Z,5.43
2023-03-13T01:41:28.975Z,4.97
2023-03-13T01:43:56.618Z,5.32
2023-03-13T01:46:29.257Z,5.55
2023-03-13T01:49:03.859Z,4.65
2023-03-13T01:52:01.849Z,4.95
2023-03-13T01:54:32.509Z,5.05
2023-03-13T01:57:16.391Z,4.57
2023-03-13T01:59:49.681Z,4.60
2023-03-13T02:02:17.404Z,4.80
2023-03-13T02:04:50.135Z,4.78
2023-03-13T02:07:21.045Z,5.43
2023-03-13T02:09:51.419Z,5.45
2023-03-13T02:12:30.795Z,5.10
2023-03-13T02:15:04.800Z,5.18
2023-03-13T02:17:33.132Z,5.00
2023-03-13T02:20:02.070Z,4.85
2023-03-13T02:22:39.322Z,5.10
2023-03-13T02:25:18.572Z,4.65
2023-03-13T02:27:46.085Z,4.82
2023-03-13T02:30:14.085Z,4.85
2023-03-13T02:32:41.754Z,4.80
2023-03-13T02:35:11.280Z,4.80
2023-03-13T02:37:39.390Z,4.90
2023-03-13T02:40:11.702Z,4.43
2023-03-13T02:42:39.525Z,4.55
2023-03-13T02:45:07.560Z,4.45
2023-03-13T02:47:35.087Z,4.75
2023-03-13T02:50:02.893Z,4.43
2023-03-13T02:52:33.378Z,4.45
2023-03-13T02:55:12.564Z,4.65
2023-03-13T02:57:40.332Z,4.78
2023-03-13T03:00:13.712Z,4.05
2023-03-13T03:02:41.554Z,4.75
2023-03-13T03:05:09.781Z,4.18
2023-03-13T03:07:37.643Z,4.28
2023-03-13T03:10:07.702Z,4.20
2023-03-13T03:12:36.235Z,3.97
2023-03-13T03:15:04.972Z,4.70
2023-03-13T03:17:33.139Z,3.97
2023-03-13T03:20:00.553Z,4.28
2023-03-13T03:22:28.030Z,4.57
2023-03-13T03:24:55.755Z,5.00
2023-03-13T03:27:24.601Z,4.25
2023-03-13T03:29:52.458Z,4.43
2023-03-13T03:32:22.022Z,4.62
2023-03-13T03:34:49.863Z,4.60
2023-03-13T03:37:17.269Z,3.95
2023-03-13T03:39:44.992Z,4.82
2023-03-13T03:42:12.629Z,4.22
2023-03-13T03:44:40.304Z,4.53
2023-03-13T03:47:09.800Z,4.05
2023-03-13T03:49:38.239Z,4.55
2023-03-13T03:52:06.766Z,4.50
2023-03-13T03:54:35.262Z,4.43
2023-03-13T03:57:02.849Z,4.28
2023-03-13T03:59:30.366Z,4.22
2023-03-13T04:01:58.283Z,4.25
2023-03-13T04:04:26.316Z,4.07
2023-03-13T04:06:54.320Z,4.18
2023-03-13T04:09:21.817Z,4.15
2023-03-13T04:11:49.507Z,4.15
2023-03-13T04:14:16.952Z,4.15
2023-03-13T04:16:45.048Z,4.18
2023-03-13T04:19:14.255Z,4.18
2023-03-13T04:21:42.107Z,4.35
2023-03-13T04:24:09.766Z,4.45
2023-03-13T04:26:38.528Z,4.40
2023-03-13T04:29:06.396Z,4.12
2023-03-13T04:31:34.550Z,4.18
2023-03-13T04:34:02.704Z,4.20
2023-03-13T04:36:30.290Z,4.22
2023-03-13T04:38:57.935Z,4.65
2023-03-13T04:41:26.954Z,3.87
2023-03-13T04:43:55.560Z,3.70
2023-03-13T04:46:23.530Z,3.87
2023-03-13T04:48:51.420Z,4.87
2023-03-13T04:51:19.197Z,4.60
2023-03-13T04:53:46.968Z,4.03
2023-03-13T04:56:41.208Z,4.32
2023-03-13T04:59:11.417Z,3.83
2023-03-13T05:01:39.805Z,3.67
2023-03-13T05:04:07.368Z,3.65
2023-03-13T05:06:35.383Z,3.92
2023-03-13T05:09:03.731Z,3.33
2023-03-13T05:11:31.752Z,3.80
2023-03-13T05:13:59.440Z,3.87
2023-03-13T05:16:27.631Z,3.85
2023-03-13T05:18:55.597Z,3.42
2023-03-13T05:21:23.153Z,3.33
2023-03-13T05:23:51.939Z,3.75
2023-03-13T05:26:21.394Z,4.05
2023-03-13T05:28:48.887Z,4.60
2023-03-13T05:31:16.721Z,4.15
2023-03-13T05:33:44.616Z,3.60
2023-03-13T05:36:12.262Z,3.50
2023-03-13T05:38:40.281Z,3.47
2023-03-13T05:41:08.541Z,3.90
2023-03-13T05:43:36.187Z,3.78
2023-03-13T05:46:04.106Z,3.75
2023-03-13T05:48:31.977Z,3.53
2023-03-13T05:50:59.589Z,3.72
2023-03-13T05:53:27.570Z,3.62
2023-03-13T05:55:55.390Z,3.42
2023-03-13T05:58:23.037Z,3.50
2023-03-13T06:00:50.988Z,3.42
2023-03-13T06:03:21.077Z,3.53
2023-03-13T06:05:50.313Z,3.60
2023-03-13T06:08:20.245Z,3.53
2023-03-13T06:10:50.097Z,3.90
2023-03-13T06:13:20.316Z,3.40
2023-03-13T06:15:53.221Z,3.37
2023-03-13T06:18:23.838Z,3.47
2023-03-13T06:20:57.651Z,3.50
2023-03-13T06:23:25.398Z,3.12
2023-03-13T06:25:52.971Z,3.35
2023-03-13T06:28:20.427Z,3.15
2023-03-13T06:30:48.195Z,3.75
2023-03-13T06:33:15.676Z,3.37
2023-03-13T06:35:55.774Z,3.50
2023-03-13T06:38:24.846Z,3.12
2023-03-13T06:40:52.333Z,3.08
2023-03-13T06:43:20.109Z,3.00
2023-03-13T06:45:47.817Z,3.47
2023-03-13T06:48:15.265Z,3.33
2023-03-13T06:50:42.743Z,3.67
2023-03-13T06:53:18.609Z,3.75
2023-03-13T06:55:46.036Z,3.55
2023-03-13T06:58:25.296Z,3.47
2023-03-13T07:00:58.985Z,3.53
2023-03-13T07:03:26.920Z,2.90
2023-03-13T07:05:58.164Z,3.17
2023-03-13T07:08:25.867Z,3.22
2023-03-13T07:10:54.678Z,3.15
2023-03-13T07:13:22.304Z,3.42
2023-03-13T07:15:49.824Z,3.17
2023-03-13T07:18:17.858Z,3.00
2023-03-13T07:20:45.520Z,3.22
2023-03-13T07:23:13.318Z,3.03
2023-03-13T07:25:41.021Z,3.10
2023-03-13T07:28:08.470Z,2.97
2023-03-13T07:30:35.889Z,3.47
2023-03-13T07:33:03.699Z,2.75
2023-03-13T07:35:31.124Z,3.10
2023-03-13T07:37:58.545Z,3.20
2023-03-13T07:40:26.313Z,3.35
2023-03-13T07:42:53.728Z,2.97
2023-03-13T07:45:21.312Z,3.00
2023-03-13T07:47:49.031Z,3.00
2023-03-13T07:50:16.770Z,3.03
2023-03-13T07:52:44.379Z,3.30
2023-03-13T07:55:12.377Z,2.70
2023-03-13T07:57:39.862Z,2.92
2023-03-13T08:00:11.969Z,2.65
2023-03-13T08:02:39.837Z,3.17
2023-03-13T08:05:07.789Z,3.05
2023-03-13T08:07:35.644Z,2.90
2023-03-13T08:10:03.096Z,2.72
2023-03-13T08:12:30.909Z,2.92
2023-03-13T08:14:58.720Z,2.72
2023-03-13T08:17:26.146Z,2.40
2023-03-13T08:19:53.821Z,3.00
2023-03-13T08:22:21.243Z,2.80
2023-03-13T08:24:48.717Z,3.17
2023-03-13T08:27:16.391Z,2.87
2023-03-13T08:29:43.827Z,2.90
2023-03-13T08:32:11.264Z,2.83
2023-03-13T08:34:38.990Z,2.85
2023-03-13T08:37:06.441Z,2.70
2023-03-13T08:39:35.444Z,2.70
2023-03-13T08:42:03.384Z,3.03
2023-03-13T08:44:30.897Z,2.90
2023-03-13T08:46:59.962Z,2.92
2023-03-13T08:49:27.743Z,3.08
2023-03-13T08:51:56.320Z,2.33
2023-03-13T08:54:23.754Z,2.85
2023-03-13T08:56:51.441Z,2.50
2023-03-13T08:59:18.927Z,2.35
2023-03-13T09:01:46.334Z,2.30
2023-03-13T09:04:14.436Z,2.42
2023-03-13T09:06:41.962Z,2.40
2023-03-13T09:09:09.756Z,2.55
2023-03-13T09:11:37.993Z,2.33
2023-03-13T09:14:05.657Z,2.85
2023-03-13T09:16:33.657Z,2.60
2023-03-13T09:19:01.481Z,2.40
2023-03-13T09:21:30.421Z,2.10
2023-03-13T09:23:57.986Z,2.30
2023-03-13T09:26:25.959Z,2.40
2023-03-13T09:28:53.537Z,2.20
2023-03-13T09:31:22.990Z,2.70
2023-03-13T09:33:50.911Z,2.42
2023-03-13T09:36:21.460Z,2.37
2023-03-13T09:38:53.819Z,2.30
2023-03-13T09:41:23.344Z,2.40
2023-03-13T09:43:52.553Z,2.70
2023-03-13T09:46:42.584Z,2.75
2023-03-13T09:49:18.577Z,2.83
2023-03-13T09:51:48.204Z,2.30
2023-03-13T09:54:15.761Z,2.58
2023-03-13T09:56:50.985Z,2.53
2023-03-13T09:59:20.522Z,2.33
2023-03-13T10:01:47.976Z,2.00
2023-03-13T10:04:28.030Z,2.37
2023-03-13T10:06:55.463Z,2.55
2023-03-13T10:09:27.223Z,2.10
2023-03-13T10:12:04.302Z,2.40
2023-03-13T10:14:40.053Z,2.10
2023-03-13T10:17:09.658Z,2.42
2023-03-13T10:19:42.194Z,2.55
2023-03-13T10:22:19.967Z,2.40
2023-03-13T10:24:59.576Z,2.50
2023-03-13T10:27:27.287Z,2.50
2023-03-13T10:29:55.059Z,2.58
2023-03-13T10:32:22.530Z,2.28
2023-03-13T10:34:52.834Z,2.35
2023-03-13T10:37:26.235Z,2.90
2023-03-13T10:39:53.871Z,2.60
2023-03-13T10:42:27.753Z,2.62
2023-03-13T10:44:59.223Z,2.60
2023-03-13T10:47:27.225Z,2.72
2023-03-13T10:49:57.956Z,2.53
2023-03-13T10:52:34.216Z,2.50
2023-03-13T10:55:06.355Z,3.53
2023-03-13T10:57:36.724Z,9.27
2023-03-13T11:00:23.556Z,7.25
2023-03-13T11:02:51.142Z,5.18
2023-03-13T11:05:32.651Z,6.18
2023-03-13T11:08:23.962Z,15.32
2023-03-13T11:11:02.093Z,24.65
2023-03-13T11:13:37.950Z,27.25
2023-03-13T11:16:14.934Z,26.50
2023-03-13T11:19:06.485Z,26.15
2023-03-13T11:21:43.637Z,23.50
2023-03-13T11:24:15.797Z,21.80
2023-03-13T11:27:12.499Z,18.58
2023-03-13T11:29:49.265Z,17.92
2023-03-13T11:32:35.991Z,18.00
2023-03-13T11:35:06.873Z,14.45
2023-03-13T11:37:35.706Z,13.88
2023-03-13T11:40:22.627Z,13.77
2023-03-13T11:43:28.830Z,12.48
2023-03-13T11:46:04.492Z,12.80
2023-03-13T11:48:47.281Z,11.38
2023-03-13T11:51:41.970Z,11.35
2023-03-13T11:54:09.581Z,11.15
2023-03-13T11:56:50.379Z,10.85
2023-03-13T12:00:06.478Z,10.90
2023-03-13T12:03:05.777Z,10.10
2023-03-13T12:05:47.159Z,10.10
2023-03-13T12:08:36.399Z,9.70
2023-03-13T12:11:10.159Z,9.38
2023-03-13T12:13:42.175Z,8.88
2023-03-13T12:16:12.133Z,9.25
2023-03-13T12:18:40.334Z,8.02
2023-03-13T12:21:37.504Z,8.25
2023-03-13T12:24:27.560Z,9.23
2023-03-13T12:29:40.771Z,7.65
2023-03-13T12:32:38.842Z,8.00
2023-03-13T12:35:12.474Z,7.55
2023-03-13T12:37:44.179Z,7.82
2023-03-13T12:40:14.916Z,7.60
2023-03-13T12:42:44.405Z,7.25
2023-03-13T12:45:19.974Z,7.25
2023-03-13T12:48:05.588Z,6.75
2023-03-13T12:50:39.099Z,6.43
2023-03-13T12:53:14.805Z,6.60
2023-03-13T12:56:06.837Z,6.35
2023-03-13T12:58:49.696Z,5.62
2023-03-13T13:01:25.961Z,4.97
2023-03-13T13:03:57.669Z,5.55
2023-03-13T13:06:25.505Z,4.47
2023-03-13T13:08:52.796Z,4.43
2023-03-13T13:11:35.364Z,4.43
2023-03-13T13:14:26.070Z,4.43
2023-03-13T13:17:03.601Z,4.03
2023-03-13T13:19:40.558Z,3.85
2023-03-13T13:22:39.108Z,3.95
2023-03-13T13:25:12.631Z,4.12
2023-03-13T13:27:39.902Z,3.28
2023-03-13T13:30:19.823Z,3.95
2023-03-13T13:32:51.245Z,3.72
2023-03-13T13:35:24.210Z,3.97
2023-03-13T13:37:51.701Z,3.42
2023-03-13T13:40:21.604Z,3.95
2023-03-13T13:42:50.911Z,3.15
2023-03-13T13:45:37.942Z,3.62
2023-03-13T13:48:24.481Z,3.58
2023-03-13T13:51:18.623Z,3.25
2023-03-13T13:53:46.538Z,3.40
2023-03-13T13:56:29.443Z,3.42
2023-03-13T13:59:03.076Z,3.37
2023-03-13T14:01:31.002Z,3.45
2023-03-13T14:04:32.117Z,3.70
2023-03-13T14:07:02.223Z,3.17
2023-03-13T14:09:50.229Z,3.28
2023-03-13T14:12:34.328Z,3.03
2023-03-13T14:15:17.192Z,3.28
2023-03-13T14:17:44.572Z,3.12
2023-03-13T14:20:28.790Z,3.00
2023-03-13T14:23:01.127Z,2.87
2023-03-13T14:25:41.642Z,3.50
2023-03-13T14:28:25.604Z,3.35
2023-03-13T14:30:54.954Z,3.15
2023-03-13T14:33:22.433Z,3.20
2023-03-13T14:35:50.014Z,2.78
2023-03-13T14:38:25.393Z,2.78
2023-03-13T14:40:53.581Z,2.90
2023-03-13T14:43:25.041Z,2.70
2023-03-13T14:45:52.623Z,3.00
2023-03-13T14:48:27.203Z,2.95
2023-03-13T14:51:14.852Z,2.87
2023-03-13T14:54:02.338Z,2.80
2023-03-13T14:56:32.745Z,2.90
2023-03-13T14:59:23.464Z,3.15
2023-03-13T15:02:21.853Z,2.87
2023-03-13T15:04:49.199Z,2.75
2023-03-13T15:07:17.156Z,3.05
2023-03-13T15:09:46.314Z,2.45
2023-03-13T15:12:16.517Z,2.60
2023-03-13T15:14:46.097Z,2.65
2023-03-13T15:17:21.602Z,3.15
2023-03-13T15:19:50.828Z,2.40
2023-03-13T15:22:18.816Z,2.58
2023-03-13T15:24:56.292Z,2.53
2023-03-13T15:27:32.556Z,2.70
2023-03-13T15:30:00.135Z,3.00
2023-03-13T15:32:28.645Z,2.60
2023-03-13T15:35:01.812Z,2.90
2023-03-13T15:37:29.609Z,2.60
2023-03-13T15:39:57.472Z,3.10
2023-03-13T15:42:25.061Z,3.05
2023-03-13T15:44:52.516Z,3.20
2023-03-13T15:47:21.144Z,3.10
2023-03-13T15:49:48.569Z,2.60
2023-03-13T15:52:18.976Z,2.97
2023-03-13T15:54:46.872Z,2.70
2023-03-13T15:57:15.624Z,2.33
2023-03-13T15:59:44.259Z,2.37
2023-03-13T16:02:16.149Z,3.00
2023-03-13T16:04:44.434Z,2.83
2023-03-13T16:07:12.669Z,2.33
2023-03-13T16:09:42.400Z,2.22
2023-03-13T16:12:10.803Z,2.80
2023-03-13T16:14:38.522Z,2.40
2023-03-13T16:17:19.536Z,2.35
2023-03-13T16:19:47.274Z,2.70
2023-03-13T16:22:14.979Z,2.35
2023-03-13T16:24:42.473Z,2.65
2023-03-13T16:27:17.678Z,2.60
2023-03-13T16:29:45.683Z,2.55
2023-03-13T16:32:15.421Z,2.33
2023-03-13T16:34:43.166Z,2.33
2023-03-13T16:37:14.541Z,2.00
2023-03-13T16:39:43.508Z,2.22
2023-03-13T16:42:11.463Z,2.58
2023-03-13T16:44:39.186Z,2.30
2023-03-13T16:47:36.302Z,1.70
2023-03-13T16:50:15.025Z,2.70
2023-03-13T16:52:42.991Z,2.58
2023-03-13T16:55:10.585Z,2.60
2023-03-13T16:57:38.365Z,2.35
2023-03-13T17:00:23.211Z,2.83
2023-03-13T17:02:51.439Z,2.85
2023-03-13T17:05:19.727Z,2.50
2023-03-13T17:07:48.335Z,2.37
2023-03-13T17:10:30.182Z,2.75
2023-03-13T17:12:57.993Z,2.78
2023-03-13T17:15:26.916Z,2.15
2023-03-13T17:17:55.482Z,2.67
2023-03-13T17:20:26.617Z,3.08
2023-03-13T17:22:56.216Z,2.90
2023-03-13T17:25:24.827Z,2.67
2023-03-13T17:27:52.671Z,2.58
2023-03-13T17:30:27.210Z,2.75
2023-03-13T17:32:59.112Z,3.08
2023-03-13T17:35:27.539Z,2.95
2023-03-13T17:37:56.313Z,2.67
2023-03-13T17:40:27.123Z,2.67
2023-03-13T17:42:59.972Z,2.87
2023-03-13T17:45:27.997Z,3.25
2023-03-13T17:47:56.606Z,2.72
2023-03-13T17:50:27.491Z,3.20
2023-03-13T17:52:56.210Z,3.00
2023-03-13T17:55:24.519Z,2.95
2023-03-13T17:57:53.718Z,3.05
2023-03-13T18:00:25.394Z,3.28
2023-03-13T18:02:54.000Z,2.90
2023-03-13T18:05:21.971Z,2.80
2023-03-13T18:07:50.180Z,2.70
2023-03-13T18:10:23.266Z,2.78
2023-03-13T18:12:51.617Z,3.00
2023-03-13T18:15:20.480Z,2.42
2023-03-13T18:17:50.145Z,3.08
2023-03-13T18:22:48.338Z,2.70
2023-03-13T18:25:16.419Z,2.75
2023-03-13T18:27:44.278Z,3.03
2023-03-13T18:30:17.677Z,2.97
2023-03-13T18:32:46.567Z,2.92
2023-03-13T18:35:15.861Z,3.30
2023-03-13T18:37:45.475Z,2.85
2023-03-13T18:40:21.707Z,2.75
2023-03-13T18:42:51.302Z,3.20
2023-03-13T18:45:21.875Z,3.07
2023-03-13T18:47:50.607Z,2.67
2023-03-13T18:50:33.536Z,2.97
2023-03-13T18:53:02.990Z,3.12
2023-03-13T18:55:31.924Z,3.42
2023-03-13T18:58:01.491Z,3.30
2023-03-13T19:00:30.766Z,3.08
2023-03-13T19:02:59.560Z,3.30
2023-03-13T19:05:28.585Z,3.00
2023-03-13T19:07:58.300Z,2.90
2023-03-13T19:10:30.038Z,2.55
2023-03-13T19:12:58.387Z,2.90
2023-03-13T19:15:28.047Z,3.22
2023-03-13T19:17:56.908Z,3.55
2023-03-13T19:20:26.078Z,2.90
2023-03-13T19:22:58.577Z,3.15
2023-03-13T19:25:28.281Z,2.62
2023-03-13T19:27:56.749Z,2.62
2023-03-13T19:30:27.250Z,2.80
2023-03-13T19:32:57.430Z,2.92
2023-03-13T19:35:26.399Z,2.75
2023-03-13T19:37:55.446Z,3.13
2023-03-13T19:40:26.320Z,2.97
2023-03-13T19:42:55.329Z,3.00
2023-03-13T19:45:29.761Z,2.85
2023-03-13T19:47:59.410Z,2.70
2023-03-13T19:52:57.359Z,2.75
2023-03-13T19:55:26.340Z,2.90
2023-03-13T19:57:55.487Z,3.03
2023-03-13T20:00:31.150Z,2.75
2023-03-13T20:03:04.883Z,2.65
2023-03-13T20:05:33.133Z,3.28
2023-03-13T20:08:02.478Z,2.45
2023-03-13T20:10:31.540Z,3.33
2023-03-13T20:13:16.584Z,2.65
2023-03-13T20:15:45.807Z,2.80
2023-03-13T20:18:16.716Z,3.12
2023-03-13T20:20:45.541Z,2.87
2023-03-13T20:23:15.553Z,2.90
2023-03-13T20:25:45.515Z,3.45
2023-03-13T20:28:14.646Z,3.10
2023-03-13T20:30:45.089Z,3.20
2023-03-13T20:33:14.307Z,2.75
2023-03-13T20:35:42.623Z,2.60
2023-03-13T20:38:11.683Z,2.87
2023-03-13T20:40:41.073Z,2.58
2023-03-13T20:43:10.034Z,3.05
2023-03-13T20:45:39.160Z,3.22
2023-03-13T20:48:09.963Z,2.65
2023-03-13T20:50:39.102Z,2.62
2023-03-13T20:53:07.669Z,3.30
2023-03-13T20:55:38.782Z,2.83
2023-03-13T20:58:07.608Z,3.08
2023-03-13T21:00:36.653Z,2.50
2023-03-13T21:03:05.742Z,2.80
2023-03-13T21:05:34.241Z,2.72
2023-03-13T21:08:03.469Z,3.03
2023-03-13T21:10:32.023Z,3.00
2023-03-13T21:13:02.499Z,2.40
2023-03-13T21:15:31.605Z,2.78
2023-03-13T21:18:00.221Z,2.92
2023-03-13T21:20:28.673Z,3.00
2023-03-13T21:22:57.129Z,2.83
2023-03-13T21:25:24.992Z,2.65
2023-03-13T21:27:52.726Z,2.87
2023-03-13T21:30:21.843Z,2.35
2023-03-13T21:32:49.544Z,2.75
2023-03-13T21:35:17.204Z,4.78
2023-03-13T21:37:45.289Z,4.25
2023-03-13T21:40:12.983Z,3.67
2023-03-13T21:42:40.483Z,4.15
2023-03-13T21:45:08.913Z,3.58
2023-03-13T21:47:37.129Z,4.50
2023-03-13T21:50:06.269Z,4.03
2023-03-13T21:52:40.667Z,3.70
2023-03-13T21:55:11.149Z,3.40
2023-03-13T22:00:08.244Z,3.67
2023-03-13T22:02:37.384Z,3.30
2023-03-13T22:05:07.277Z,3.05
2023-03-13T22:07:35.781Z,3.10
2023-03-13T22:10:03.707Z,3.62
2023-03-13T22:12:31.302Z,3.60
2023-03-13T22:14:58.955Z,3.75
2023-03-13T22:17:26.840Z,3.17
2023-03-13T22:19:54.303Z,3.65
2023-03-13T22:22:22.116Z,3.53
2023-03-13T22:24:49.885Z,3.30
2023-03-13T22:27:19.469Z,3.22
2023-03-13T22:29:47.692Z,3.10
2023-03-13T22:32:16.865Z,2.55
2023-03-13T22:34:47.208Z,3.50
2023-03-13T22:37:15.107Z,3.55
2023-03-13T22:39:42.552Z,3.20
2023-03-13T22:42:09.961Z,3.67
2023-03-13T22:44:37.684Z,3.17
2023-03-13T22:47:05.160Z,2.85
2023-03-13T22:49:32.579Z,3.17
2023-03-13T22:52:00.330Z,3.40
2023-03-13T22:54:27.789Z,3.30
2023-03-13T22:56:55.230Z,2.70
2023-03-13T22:59:23.006Z,2.62
2023-03-13T23:01:50.434Z,2.70
2023-03-13T23:04:17.860Z,2.80
2023-03-13T23:06:45.591Z,3.10
2023-03-13T23:09:13.031Z,2.78
2023-03-13T23:11:40.477Z,3.08
2023-03-13T23:14:08.199Z,3.08
2023-03-13T23:16:35.982Z,2.53
2023-03-13T23:19:03.398Z,3.20
2023-03-13T23:21:31.105Z,3.42
2023-03-13T23:23:58.538Z,2.90
2023-03-13T23:26:25.977Z,2.90
2023-03-13T23:28:54.197Z,3.17
2023-03-13T23:31:21.946Z,2.95
2023-03-13T23:33:49.541Z,3.08
2023-03-13T23:36:18.217Z,3.20
2023-03-13T23:38:48.778Z,3.20
2023-03-13T23:41:16.209Z,2.70
2023-03-13T23:43:43.935Z,3.05
2023-03-13T23:46:25.989Z,2.80
2023-03-13T23:48:57.311Z,2.55
2023-03-13T23:51:24.955Z,2.53
2023-03-13T23:53:52.415Z,2.97
2023-03-13T23:56:20.619Z,2.95
2023-03-13T23:58:48.079Z,2.85
